Time;durP1;ratioP1;P1;durP2;ratioP2;P2;SDS_P1;SDS_P2;PMS_P1;PMS_P2;Temp;Humidity;BMP_temperature;BMP_pressure;BME280_temperature;BME280_humidity;BME280_pressure;Samples;Min_cycle;Max_cycle;Signal;HPM_P1;HPM_P2
2022/09/19 00:00:46;;;;;;;8.35;2.90;;;;;;;11.88;74.64;100211.50;5153806;27;20415;-61
2022/09/19 00:03:15;;;;;;;8.13;2.30;;;;;;;11.85;74.84;100216.91;5154020;27;20051;-60
2022/09/19 00:05:43;;;;;;;10.50;2.40;;;;;;;11.87;74.27;100215.44;5153734;27;20495;-61
2022/09/19 00:08:10;;;;;;;8.40;2.40;;;;;;;11.77;74.99;100205.41;5154339;27;20047;-60
2022/09/19 00:10:39;;;;;;;11.60;2.83;;;;;;;11.82;74.51;100217.56;5152343;27;20069;-61
2022/09/19 00:13:08;;;;;;;8.45;2.33;;;;;;;11.82;74.31;100211.97;5157040;27;20054;-61
2022/09/19 00:15:46;;;;;;;8.00;2.00;;;;;;;11.77;74.92;100213.78;5158081;27;20054;-61
2022/09/19 00:18:15;;;;;;;10.63;2.95;;;;;;;11.76;74.03;100217.75;5157910;27;20059;-61
2022/09/19 00:20:47;;;;;;;8.43;2.63;;;;;;;11.76;74.30;100209.38;5158017;27;20411;-60
2022/09/19 00:26:05;;;;;;;8.85;2.80;;;;;;;11.73;73.91;100210.00;5143201;27;20062;-61
2022/09/19 00:28:32;;;;;;;6.43;2.55;;;;;;;11.71;74.31;100217.88;5136871;27;20047;-60
2022/09/19 00:31:03;;;;;;;9.90;2.33;;;;;;;11.73;73.97;100221.16;5136968;27;20499;-61
2022/09/19 00:33:33;;;;;;;8.48;2.15;;;;;;;11.66;74.26;100215.28;5136845;27;20043;-61
2022/09/19 00:36:03;;;;;;;7.30;2.47;;;;;;;11.65;74.30;100218.38;5136798;27;20059;-60
2022/09/19 00:38:34;;;;;;;;;;;;;;;11.47;74.38;100212.00;5137414;27;20084;-60
2022/09/19 00:41:01;;;;;;;8.70;2.30;;;;;;;11.48;74.63;100228.38;5137029;27;19927;-61
2022/09/19 00:43:45;;;;;;;8.73;2.83;;;;;;;11.52;75.04;100228.56;5136701;27;20058;-60
2022/09/19 00:46:13;;;;;;;7.65;2.65;;;;;;;11.52;75.32;100232.16;5136698;27;20499;-60
2022/09/19 00:48:45;;;;;;;7.68;2.15;;;;;;;11.50;74.99;100234.44;5135822;27;20055;-60
2022/09/19 00:51:17;;;;;;;7.93;2.55;;;;;;;11.52;75.64;100239.72;5136830;27;20058;-60
2022/09/19 00:53:48;;;;;;;8.95;1.95;;;;;;;11.49;74.97;100246.78;5145292;27;20047;-60
2022/09/19 00:56:18;;;;;;;8.02;2.47;;;;;;;11.48;74.96;100247.09;5156333;27;20054;-60
2022/09/19 00:58:47;;;;;;;8.20;2.13;;;;;;;11.42;75.01;100249.19;5157000;27;20507;-60
2022/09/19 01:01:17;;;;;;;8.70;2.50;;;;;;;11.42;75.14;100249.19;5157240;27;20497;-60
2022/09/19 01:03:49;;;;;;;10.35;2.08;;;;;;;11.46;75.09;100254.97;5157205;27;20061;-60
2022/09/19 01:06:41;;;;;;;10.07;2.40;;;;;;;11.46;74.94;100243.81;5156864;27;20073;-61
2022/09/19 01:09:44;;;;;;;7.90;2.45;;;;;;;11.45;74.97;100247.75;5153956;27;20054;-60
2022/09/19 01:12:27;;;;;;;7.90;1.98;;;;;;;11.45;75.20;100248.56;5156890;27;20085;-60
2022/09/19 01:15:13;;;;;;;10.48;2.63;;;;;;;11.46;75.24;100249.38;5156203;27;20134;-60
2022/09/19 01:17:46;;;;;;;12.15;2.03;;;;;;;11.47;75.31;100246.28;5156727;27;20368;-60
2022/09/19 01:20:51;;;;;;;7.03;2.08;;;;;;;11.47;75.15;100257.44;5156024;27;20055;-60
2022/09/19 01:23:57;;;;;;;12.02;2.83;;;;;;;11.44;75.17;100249.69;5153602;27;20051;-60
2022/09/19 01:26:40;;;;;;;8.48;2.28;;;;;;;11.47;74.76;100262.19;5156759;27;20054;-60
2022/09/19 01:29:14;;;;;;;9.55;2.50;;;;;;;11.44;75.22;100268.41;5153327;27;20136;-60
2022/09/19 01:31:45;;;;;;;7.80;1.70;;;;;;;11.41;74.99;100255.13;5156722;27;20058;-60
2022/09/19 01:34:17;;;;;;;9.20;2.25;;;;;;;11.41;75.62;100260.72;5156298;27;20058;-59
2022/09/19 01:36:49;;;;;;;13.38;2.40;;;;;;;11.37;75.46;100263.31;5156368;27;20418;-60
2022/09/19 01:39:23;;;;;;;8.70;2.00;;;;;;;11.34;75.87;100262.00;5148358;27;20050;-60
2022/09/19 01:41:51;;;;;;;10.13;2.28;;;;;;;11.32;76.06;100261.50;5150944;27;20051;-60
2022/09/19 01:44:21;;;;;;;8.10;2.20;;;;;;;11.36;76.47;100265.28;5156505;27;20415;-60
2022/09/19 01:47:00;;;;;;;8.60;2.42;;;;;;;11.41;75.72;100267.09;5155991;27;20059;-60
2022/09/19 01:49:43;;;;;;;10.37;2.33;;;;;;;11.42;76.16;100276.28;5156482;27;20054;-60
2022/09/19 01:52:24;;;;;;;11.75;2.47;;;;;;;11.44;76.46;100276.78;5144996;27;20051;-60
2022/09/19 01:55:02;;;;;;;10.93;2.40;;;;;;;11.50;75.99;100278.25;5135551;27;20058;-60
2022/09/19 01:57:37;;;;;;;9.60;2.35;;;;;;;11.56;75.99;100276.97;5134936;27;20059;-60
2022/09/19 02:00:13;;;;;;;13.55;2.30;;;;;;;11.61;75.90;100285.16;5135276;27;20059;-60
2022/09/19 02:02:48;;;;;;;9.80;2.10;;;;;;;11.65;75.74;100275.00;5135623;27;20399;-60
2022/09/19 02:05:24;;;;;;;7.68;2.35;;;;;;;11.70;75.39;100288.81;5135151;27;20058;-61
2022/09/19 02:08:00;;;;;;;7.60;1.98;;;;;;;11.67;75.57;100278.28;5136962;27;20062;-60
2022/09/19 02:10:31;;;;;;;12.20;2.78;;;;;;;11.72;75.54;100280.13;5135184;27;20062;-60
2022/09/19 02:13:04;;;;;;;8.73;2.40;;;;;;;11.75;75.46;100285.84;5134894;27;20051;-61
2022/09/19 02:15:36;;;;;;;10.80;3.17;;;;;;;11.78;75.47;100290.78;5135007;27;20059;-61
2022/09/19 02:18:10;;;;;;;12.63;2.40;;;;;;;11.87;75.18;100282.41;5135128;27;20059;-60
2022/09/19 02:20:42;;;;;;;11.82;2.15;;;;;;;11.90;75.25;100281.78;5134749;27;20059;-60
2022/09/19 02:23:15;;;;;;;11.38;2.75;;;;;;;11.90;74.75;100281.78;5134598;27;20055;-60
2022/09/19 02:25:46;;;;;;;11.95;2.65;;;;;;;11.94;75.35;100287.53;5134892;27;20058;-60
2022/09/19 02:28:17;;;;;;;10.38;2.90;;;;;;;11.97;74.88;100287.69;5134314;27;20051;-60
2022/09/19 02:30:46;;;;;;;9.13;2.08;;;;;;;12.04;75.17;100292.78;5134323;27;20055;-60
2022/09/19 02:33:13;;;;;;;10.85;2.47;;;;;;;12.03;74.39;100285.53;5134872;27;20419;-60
2022/09/19 02:35:50;;;;;;;12.52;2.95;;;;;;;12.07;74.75;100291.31;5134588;27;20174;-60
2022/09/19 02:38:24;;;;;;;8.65;2.38;;;;;;;12.09;74.63;100289.00;5150909;27;20066;-61
2022/09/19 02:40:57;;;;;;;9.00;2.30;;;;;;;12.05;73.85;100291.63;5155536;27;20062;-60
2022/09/19 02:43:31;;;;;;;7.95;2.15;;;;;;;12.00;73.89;100302.97;5155498;27;20046;-60
2022/09/19 02:46:07;;;;;;;10.88;2.13;;;;;;;12.02;74.05;100306.25;5154948;27;20062;-60
2022/09/19 02:48:44;;;;;;;7.13;2.30;;;;;;;12.00;74.64;100302.97;5154883;27;20054;-60
2022/09/19 02:51:16;;;;;;;7.18;2.10;;;;;;;11.98;74.27;100306.06;5150961;27;20050;-60
2022/09/19 02:53:48;;;;;;;11.75;2.28;;;;;;;11.90;75.35;100306.06;5155114;27;20058;-60
2022/09/19 02:56:19;;;;;;;8.10;2.47;;;;;;;11.99;74.57;100301.34;5154857;27;20054;-59
2022/09/19 02:58:51;;;;;;;7.13;1.85;;;;;;;12.02;75.09;100303.47;5141366;27;20078;-60
2022/09/19 03:01:25;;;;;;;16.00;2.83;;;;;;;12.05;74.57;100315.94;5134197;27;20051;-60
2022/09/19 03:04:15;;;;;;;10.02;2.90;;;;;;;12.06;74.36;100310.03;5133951;27;20051;-60
2022/09/19 03:06:44;;;;;;;;;;;;;;;12.02;74.50;100306.25;5144533;27;20494;-60
2022/09/19 03:09:15;;;;;;;8.10;2.78;;;;;;;11.91;74.51;100316.91;5154968;27;19926;-61
2022/09/19 03:11:51;;;;;;;11.98;2.92;;;;;;;11.96;74.72;100310.34;5154614;27;20054;-60
2022/09/19 03:14:18;;;;;;;9.45;2.75;;;;;;;11.98;74.34;100316.44;5154349;27;20055;-59
2022/09/19 03:16:51;;;;;;;11.93;2.80;;;;;;;11.95;74.34;100325.47;5154420;27;20065;-60
2022/09/19 03:19:18;;;;;;;10.05;2.63;;;;;;;11.92;74.40;100317.75;5154419;27;20065;-59
2022/09/19 03:21:45;;;;;;;9.60;2.50;;;;;;;11.89;74.31;100312.81;5139843;27;20107;-60
2022/09/19 03:24:13;;;;;;;9.75;2.55;;;;;;;11.81;74.92;100310.81;5133814;27;20062;-59
2022/09/19 03:26:40;;;;;;;10.43;3.15;;;;;;;11.81;74.16;100320.00;5135621;27;20055;-60
2022/09/19 03:29:10;;;;;;;13.88;2.70;;;;;;;11.75;74.81;100318.50;5133217;27;20399;-61
2022/09/19 03:31:37;;;;;;;7.25;2.58;;;;;;;11.72;74.99;100317.19;5133337;27;20059;-60
2022/09/19 03:34:06;;;;;;;14.30;2.60;;;;;;;11.73;75.62;100321.63;5133394;27;20051;-59
2022/09/19 03:36:34;;;;;;;10.67;2.87;;;;;;;11.75;75.18;100330.50;5133562;27;20055;-59
2022/09/19 03:39:02;;;;;;;9.20;2.63;;;;;;;11.75;75.27;100329.69;5133366;27;20467;-60
2022/09/19 03:41:31;;;;;;;10.23;2.13;;;;;;;11.80;75.36;100323.94;5132326;27;20069;-59
2022/09/19 03:44:01;;;;;;;9.05;2.38;;;;;;;11.82;75.02;100335.59;5132915;27;20058;-60
2022/09/19 03:46:30;;;;;;;;;;;;;;;11.82;74.78;100327.22;5133918;27;20062;-59
2022/09/19 03:48:58;;;;;;;6.45;2.13;;;;;;;11.77;75.07;100332.97;5138746;27;19919;-61
2022/09/19 03:51:27;;;;;;;7.95;1.90;;;;;;;11.80;75.48;100332.31;5153883;27;20058;-60
2022/09/19 03:53:54;;;;;;;7.47;2.17;;;;;;;11.79;75.23;100330.66;5153949;27;20055;-60
2022/09/19 03:56:21;;;;;;;8.05;2.58;;;;;;;11.86;75.44;100332.97;5154257;27;20403;-60
2022/09/19 03:58:48;;;;;;;9.07;2.75;;;;;;;11.89;75.28;100332.38;5153751;27;20490;-60
2022/09/19 04:01:16;;;;;;;11.55;2.60;;;;;;;11.88;75.82;100333.47;5138306;27;20491;-60
2022/09/19 04:03:44;;;;;;;10.20;2.60;;;;;;;11.89;75.62;100340.72;5134794;27;20055;-60
2022/09/19 04:06:11;;;;;;;13.18;2.70;;;;;;;11.93;75.29;100338.94;5133198;27;20055;-60
2022/09/19 04:08:40;;;;;;;11.75;2.97;;;;;;;11.94;74.93;100338.59;5133284;28;20055;-61
2022/09/19 04:11:09;;;;;;;10.30;3.17;;;;;;;11.94;74.46;100337.78;5133331;28;20392;-60
2022/09/19 04:13:37;;;;;;;14.63;3.20;;;;;;;11.82;74.71;100341.16;5133120;28;20051;-60
2022/09/19 04:16:05;;;;;;;10.18;3.45;;;;;;;11.86;75.54;100346.91;5133037;28;20066;-59
2022/09/19 04:18:33;;;;;;;11.55;2.53;;;;;;;11.90;75.42;100345.16;5132296;27;20051;-60
2022/09/19 04:21:01;;;;;;;10.63;2.30;;;;;;;11.90;75.96;100353.53;5132990;28;20055;-61
2022/09/19 04:23:28;;;;;;;9.77;2.15;;;;;;;11.95;75.58;100351.41;5133119;28;20062;-60
2022/09/19 04:25:57;;;;;;;10.45;2.38;;;;;;;11.93;75.26;100352.88;5133077;27;20414;-60
2022/09/19 04:28:24;;;;;;;12.85;2.70;;;;;;;11.99;75.36;100346.00;5132975;28;20067;-59
2022/09/19 04:30:52;;;;;;;10.52;2.33;;;;;;;12.05;75.62;100350.25;5133119;28;20058;-59
2022/09/19 04:33:20;;;;;;;9.77;2.30;;;;;;;12.07;74.87;100359.13;5144753;27;20398;-60
2022/09/19 04:35:47;;;;;;;8.43;2.50;;;;;;;12.09;75.47;100358.81;5153305;27;20058;-59
2022/09/19 04:38:17;;;;;;;11.18;2.67;;;;;;;12.13;74.67;100352.22;5153803;27;20063;-59
2022/09/19 04:40:47;;;;;;;11.52;2.92;;;;;;;12.21;74.61;100360.94;5153373;27;20510;-59
2022/09/19 04:43:18;;;;;;;9.73;2.83;;;;;;;12.25;75.04;100367.53;5153449;27;20058;-59
2022/09/19 04:45:48;;;;;;;10.30;2.33;;;;;;;12.27;74.43;100362.44;5153429;27;20047;-60
2022/09/19 04:48:16;;;;;;;10.63;2.80;;;;;;;12.30;74.54;100370.94;5133193;27;20518;-59
2022/09/19 04:50:45;;;;;;;9.52;2.72;;;;;;;12.32;74.80;100371.44;5132759;28;20051;-59
2022/09/19 04:53:16;;;;;;;8.83;2.27;;;;;;;12.32;74.09;100370.63;5155491;27;20058;-60
2022/09/19 04:55:44;;;;;;;13.15;2.85;;;;;;;12.31;75.05;100374.59;5158615;27;20057;-60
2022/09/19 04:58:15;;;;;;;9.50;2.55;;;;;;;12.34;74.01;100377.53;5158010;27;20081;-60
2022/09/19 05:00:45;;;;;;;9.27;2.70;;;;;;;12.41;74.99;100379.84;5157289;27;20062;-61
2022/09/19 05:03:15;;;;;;;12.43;2.30;;;;;;;12.41;74.78;100379.84;5156470;27;20054;-60
2022/09/19 05:05:44;;;;;;;10.82;2.78;;;;;;;12.45;73.68;100385.59;5157007;27;20552;-60
2022/09/19 05:08:15;;;;;;;11.25;2.35;;;;;;;12.46;74.74;100392.81;5156795;27;20059;-59
2022/09/19 05:10:43;;;;;;;11.65;2.70;;;;;;;12.45;74.06;100391.16;5156873;27;20064;-60
2022/09/19 05:13:10;;;;;;;12.52;2.40;;;;;;;12.50;73.80;100386.25;5151802;27;20058;-59
2022/09/19 05:15:40;;;;;;;11.25;2.78;;;;;;;12.47;73.67;100395.28;5147488;27;20058;-59
2022/09/19 05:18:08;;;;;;;;;;;;;;;12.43;74.17;100388.72;5148137;27;20050;-59
2022/09/19 05:20:36;;;;;;;11.60;2.70;;;;;;;12.48;73.83;100393.31;5135364;27;19930;-59
2022/09/19 05:23:04;;;;;;;10.32;2.47;;;;;;;12.51;74.81;100399.03;5138363;27;20055;-59
2022/09/19 05:25:37;;;;;;;10.60;2.85;;;;;;;12.61;73.98;100402.69;5146525;27;20057;-59
2022/09/19 05:28:06;;;;;;;10.98;2.40;;;;;;;12.67;74.19;100401.34;5147372;27;20059;-59
2022/09/19 05:30:34;;;;;;;10.93;2.47;;;;;;;12.71;73.89;100410.72;5152462;27;20058;-59
2022/09/19 05:33:02;;;;;;;10.15;2.63;;;;;;;12.70;73.45;100414.66;5148253;27;20069;-59
2022/09/19 05:35:31;;;;;;;12.02;3.08;;;;;;;12.75;73.38;100406.13;5143266;27;20490;-59
2022/09/19 05:37:59;;;;;;;10.70;3.08;;;;;;;12.77;73.61;100412.19;5135859;27;20051;-60
2022/09/19 05:40:27;;;;;;;12.93;3.20;;;;;;;12.72;72.56;100412.34;5135967;27;20055;-60
2022/09/19 05:42:59;;;;;;;11.80;3.72;;;;;;;12.72;73.51;100404.78;5135105;27;20069;-61
2022/09/19 05:45:27;;;;;;;7.18;2.38;;;;;;;12.75;73.15;100415.31;5135670;27;20522;-60
2022/09/19 05:48:00;;;;;;;12.27;3.00;;;;;;;12.78;73.18;100417.44;5139973;27;20058;-60
2022/09/19 05:50:28;;;;;;;9.70;2.50;;;;;;;12.84;73.41;100412.50;5154714;27;20047;-60
2022/09/19 05:55:41;;;;;;;9.55;2.80;;;;;;;12.92;73.11;100422.03;5160637;27;20083;-60
2022/09/19 05:58:09;;;;;;;11.55;2.60;;;;;;;12.91;73.49;100429.59;5155972;27;20050;-60
2022/09/19 06:00:37;;;;;;;12.35;2.90;;;;;;;12.93;73.13;100426.47;5154047;27;20077;-60
2022/09/19 06:03:06;;;;;;;12.13;2.60;;;;;;;12.98;72.67;100429.91;5135913;27;20487;-59
2022/09/19 06:05:40;;;;;;;9.30;3.22;;;;;;;13.03;71.48;100428.09;5153348;27;20046;-59
2022/09/19 06:08:08;;;;;;;13.85;3.58;;;;;;;13.03;72.56;100436.50;5156221;27;20063;-60
2022/09/19 06:10:38;;;;;;;8.33;2.77;;;;;;;13.10;72.10;100434.00;5156040;27;20051;-60
2022/09/19 06:13:05;;;;;;;;;;;;;;;13.10;71.46;100439.59;5156741;27;20498;-60
2022/09/19 06:15:33;;;;;;;11.57;2.70;;;;;;;13.14;72.49;100440.56;5147299;27;20272;-59
2022/09/19 06:18:01;;;;;;;11.93;2.90;;;;;;;13.01;72.45;100436.81;5135461;27;20059;-60
2022/09/19 06:20:28;;;;;;;10.27;2.47;;;;;;;13.03;72.05;100450.47;5135460;27;20055;-60
2022/09/19 06:23:00;;;;;;;10.65;3.00;;;;;;;13.16;72.13;100441.06;5134691;27;20051;-61
2022/09/19 06:25:29;;;;;;;10.65;2.70;;;;;;;13.19;72.29;100449.63;5133908;27;20054;-59
2022/09/19 06:28:00;;;;;;;7.78;2.22;;;;;;;13.26;72.24;100449.09;5148785;27;20063;-64
2022/09/19 06:30:28;;;;;;;11.90;2.72;;;;;;;13.28;72.36;100460.78;5124534;27;20054;-62
2022/09/19 06:32:55;;;;;;;11.40;2.55;;;;;;;13.32;70.88;100463.78;5118949;27;20063;-61
2022/09/19 06:35:25;;;;;;;8.98;2.58;;;;;;;13.37;71.60;100469.16;5128088;27;20055;-62
2022/09/19 06:37:58;;;;;;;9.05;2.80;;;;;;;13.39;71.42;100475.25;5109423;27;20070;-62
2022/09/19 06:40:26;;;;;;;8.88;2.42;;;;;;;13.29;71.88;100470.00;5129433;27;20059;-62
2022/09/19 06:43:01;;;;;;;7.57;2.70;;;;;;;13.40;70.72;100476.91;5123030;27;20058;-62
2022/09/19 06:45:29;;;;;;;8.70;2.95;;;;;;;13.49;70.19;100474.91;5114490;27;20051;-62
2022/09/19 06:47:58;;;;;;;13.20;2.83;;;;;;;13.47;71.27;100477.22;5124654;27;20140;-62
2022/09/19 06:50:26;;;;;;;11.02;3.28;;;;;;;13.58;69.75;100494.47;5129469;27;20514;-62
2022/09/19 06:52:56;;;;;;;11.52;2.60;;;;;;;13.63;69.79;100483.09;5121908;27;20432;-63
2022/09/19 06:55:25;;;;;;;8.02;2.20;;;;;;;13.65;70.95;100497.59;5123127;27;20063;-62
2022/09/19 06:57:57;;;;;;;10.25;2.72;;;;;;;13.71;70.04;100501.00;5119434;27;20066;-62
2022/09/19 07:00:27;;;;;;;9.30;3.15;;;;;;;13.82;69.52;100493.88;5111945;27;20063;-62
2022/09/19 07:03:01;;;;;;;9.73;2.83;;;;;;;13.91;68.81;100500.25;5112681;27;20063;-63
2022/09/19 07:05:32;;;;;;;14.07;2.72;;;;;;;14.04;69.50;100500.38;5118131;27;20060;-62
2022/09/19 07:08:00;;;;;;;8.18;2.72;;;;;;;13.98;68.80;100497.78;5120800;27;20059;-62
2022/09/19 07:10:28;;;;;;;8.80;2.47;;;;;;;14.10;69.28;100499.84;5126669;27;20054;-62
2022/09/19 07:12:56;;;;;;;9.25;2.85;;;;;;;14.04;69.44;100512.38;5120552;27;20545;-62
2022/09/19 07:15:28;;;;;;;10.23;2.58;;;;;;;14.14;67.84;100506.41;5121131;27;20062;-62
2022/09/19 07:17:56;;;;;;;10.48;2.72;;;;;;;14.23;68.46;100511.97;5109918;27;20058;-63
2022/09/19 07:20:33;;;;;;;7.80;2.42;;;;;;;14.41;67.46;100504.28;5128001;27;20498;-62
2022/09/19 07:23:02;;;;;;;10.65;2.78;;;;;;;14.77;67.35;100514.94;5106387;27;20058;-62
2022/09/19 07:25:30;;;;;;;8.60;2.72;;;;;;;14.93;66.34;100519.91;5121694;27;20058;-63
2022/09/19 07:27:58;;;;;;;9.35;2.70;;;;;;;14.94;65.18;100515.97;5111721;27;20059;-63
2022/09/19 07:30:31;;;;;;;9.80;3.15;;;;;;;15.39;65.06;100520.81;5135928;27;20430;-63
2022/09/19 07:33:00;;;;;;;11.27;2.78;;;;;;;15.38;64.68;100514.38;5128627;27;20069;-63
2022/09/19 07:35:29;;;;;;;6.30;2.50;;;;;;;15.45;63.99;100533.44;5137934;27;20051;-63
2022/09/19 07:37:57;;;;;;;8.57;2.92;;;;;;;15.52;63.92;100524.50;5138872;27;20518;-62
2022/09/19 07:40:24;;;;;;;8.88;3.20;;;;;;;15.35;64.36;100526.31;5128987;27;20058;-62
2022/09/19 07:42:52;;;;;;;6.55;2.40;;;;;;;15.48;64.13;100531.97;5134276;27;20066;-61
2022/09/19 07:45:21;;;;;;;8.13;2.38;;;;;;;15.47;64.17;100533.13;5133163;27;20055;-62
2022/09/19 07:47:52;;;;;;;;;;;;;;;15.41;64.20;100533.34;5140795;27;20541;-63
2022/09/19 07:50:19;;;;;;;7.85;2.53;;;;;;;15.44;64.68;100540.25;5141626;27;19926;-63
2022/09/19 07:52:50;;;;;;;9.77;3.25;;;;;;;15.36;64.71;100550.38;5135101;27;20051;-62
2022/09/19 07:55:17;;;;;;;8.07;2.45;;;;;;;15.49;64.49;100550.44;5129888;27;20054;-62
2022/09/19 07:57:51;;;;;;;11.10;3.13;;;;;;;15.48;64.24;100540.38;5129354;27;20055;-61
2022/09/19 08:00:20;;;;;;;13.52;3.63;;;;;;;15.82;63.50;100551.25;5135475;27;20061;-62
2022/09/19 08:02:59;;;;;;;9.88;3.35;;;;;;;15.96;62.32;100550.94;5139529;27;20061;-63
2022/09/19 08:05:28;;;;;;;9.82;2.88;;;;;;;16.01;63.14;100566.75;5141348;27;20224;-62
2022/09/19 08:07:58;;;;;;;8.68;3.50;;;;;;;16.03;62.65;100567.22;5118102;27;20078;-63
2022/09/19 08:10:25;;;;;;;10.40;2.67;;;;;;;16.05;62.72;100564.06;5140898;27;20062;-62
2022/09/19 08:12:53;;;;;;;6.13;2.70;;;;;;;16.44;62.26;100562.53;5143027;27;20101;-63
2022/09/19 08:15:20;;;;;;;6.97;2.83;;;;;;;16.50;61.81;100563.13;5139774;27;20733;-62
2022/09/19 08:17:59;;;;;;;8.30;2.92;;;;;;;16.49;61.39;100565.13;5145814;27;20523;-63
2022/09/19 08:20:29;;;;;;;9.57;2.63;;;;;;;16.58;61.44;100565.00;5138387;27;20054;-62
2022/09/19 08:22:58;;;;;;;8.70;2.33;;;;;;;16.92;60.96;100574.13;5141233;27;20483;-64
2022/09/19 08:25:25;;;;;;;10.80;2.58;;;;;;;17.28;59.98;100567.53;5127783;27;20059;-63
2022/09/19 08:27:53;;;;;;;7.03;2.60;;;;;;;17.61;58.72;100566.47;5135483;27;20054;-63
2022/09/19 08:30:21;;;;;;;8.10;2.50;;;;;;;17.94;57.93;100568.19;5137511;27;20061;-63
2022/09/19 08:32:50;;;;;;;6.57;2.50;;;;;;;18.41;57.49;100561.72;5143608;27;20063;-63
2022/09/19 08:35:20;;;;;;;7.63;2.33;;;;;;;19.24;54.89;100558.81;5144954;27;20510;-63
2022/09/19 08:37:48;;;;;;;11.48;2.92;;;;;;;19.59;53.95;100569.16;5146680;27;20065;-63
2022/09/19 08:40:21;;;;;;;8.80;2.15;;;;;;;19.68;53.33;100575.41;5151102;27;20048;-63
2022/09/19 08:42:58;;;;;;;6.35;2.45;;;;;;;20.91;50.78;100567.81;5147801;27;20067;-64
2022/09/19 08:45:33;;;;;;;11.15;2.55;;;;;;;21.63;48.67;100561.09;5138875;27;20058;-63
2022/09/19 08:48:05;;;;;;;7.68;2.65;;;;;;;23.42;45.45;100558.81;5147981;27;20078;-62
2022/09/19 08:50:41;;;;;;;7.53;2.47;;;;;;;25.20;40.17;100550.75;5144106;27;20418;-61
2022/09/19 08:53:17;;;;;;;6.47;2.65;;;;;;;26.47;39.20;100560.16;5142637;27;20055;-63
2022/09/19 08:55:45;;;;;;;7.63;2.40;;;;;;;27.53;36.13;100553.72;5139143;27;20074;-63
2022/09/19 08:58:18;;;;;;;5.55;1.98;;;;;;;27.50;35.25;100552.50;5143136;27;20495;-62
2022/09/19 09:00:48;;;;;;;6.57;2.00;;;;;;;27.16;35.21;100561.09;5137159;27;20056;-63
2022/09/19 09:03:17;;;;;;;5.70;2.28;;;;;;;29.03;32.44;100556.19;5148135;27;20444;-63
2022/09/19 09:05:55;;;;;;;6.50;2.70;;;;;;;29.79;31.89;100561.19;5139568;27;20057;-63
2022/09/19 09:08:34;;;;;;;5.38;2.00;;;;;;;30.02;31.12;100547.94;5146232;27;20062;-63
2022/09/19 09:11:13;;;;;;;9.50;1.90;;;;;;;29.90;31.21;100556.00;5134327;27;20060;-63
2022/09/19 09:13:57;;;;;;;4.82;1.80;;;;;;;28.60;32.28;100559.03;5141947;27;20402;-62
2022/09/19 09:16:35;;;;;;;6.35;2.40;;;;;;;29.06;32.33;100557.34;5134958;27;20059;-63
2022/09/19 09:19:33;;;;;;;6.75;2.10;;;;;;;28.48;32.47;100555.53;5144830;27;20058;-62
2022/09/19 09:22:16;;;;;;;6.22;2.17;;;;;;;27.95;32.99;100551.50;5136655;27;20162;-63
2022/09/19 09:24:50;;;;;;;5.50;1.67;;;;;;;27.99;33.60;100562.88;5147464;27;20058;-63
2022/09/19 09:27:21;;;;;;;5.13;1.95;;;;;;;27.37;34.42;100562.91;5140803;27;20050;-63
2022/09/19 09:29:52;;;;;;;6.07;2.10;;;;;;;27.59;33.87;100562.63;5150263;27;20062;-63
2022/09/19 09:32:25;;;;;;;10.02;2.38;;;;;;;26.57;34.98;100553.56;5146126;27;20054;-63
2022/09/19 09:34:58;;;;;;;7.22;2.35;;;;;;;26.44;35.54;100566.72;5150670;27;20077;-63
2022/09/19 09:37:31;;;;;;;6.38;2.65;;;;;;;26.10;36.25;100558.81;5141449;27;20065;-63
2022/09/19 09:40:12;;;;;;;5.38;1.60;;;;;;;25.81;35.90;100563.91;5140820;27;20081;-63
2022/09/19 09:42:45;;;;;;;7.15;2.05;;;;;;;26.16;36.24;100562.03;5146974;27;20511;-62
2022/09/19 09:45:22;;;;;;;7.13;2.03;;;;;;;25.61;35.98;100557.91;5142381;27;20050;-63
2022/09/19 09:47:58;;;;;;;7.28;1.92;;;;;;;24.97;37.65;100571.16;5145271;27;20066;-62
2022/09/19 09:50:49;;;;;;;7.10;1.60;;;;;;;24.73;37.35;100569.97;5141797;27;21079;-62
2022/09/19 09:53:30;;;;;;;7.53;2.13;;;;;;;24.59;37.58;100573.66;5129049;27;20047;-60
2022/09/19 09:56:17;;;;;;;7.65;2.03;;;;;;;24.10;37.75;100578.09;5142009;27;20066;-63
2022/09/19 09:58:58;;;;;;;4.35;1.58;;;;;;;23.67;38.50;100575.16;5131817;27;20048;-62
2022/09/19 10:04:28;;;;;;;5.70;1.52;;;;;;;26.38;34.73;100556.97;5122154;27;20759;-62
2022/09/19 10:07:12;;;;;;;4.45;1.33;;;;;;;25.50;36.10;100561.59;5129613;27;20076;-62
2022/09/19 10:09:46;;;;;;;4.40;1.27;;;;;;;25.07;35.92;100564.63;5139406;27;20054;-62
2022/09/19 10:12:23;;;;;;;5.90;1.70;;;;;;;24.66;36.82;100555.75;5134612;27;20061;-62
2022/09/19 10:14:55;;;;;;;3.78;1.40;;;;;;;23.99;36.49;100568.75;5138099;27;20059;-62
2022/09/19 10:17:25;;;;;;;4.25;1.52;;;;;;;23.29;38.17;100566.06;5141718;27;20055;-62
2022/09/19 10:19:59;;;;;;;5.05;1.60;;;;;;;22.98;39.43;100568.31;5129466;27;20969;-62
2022/09/19 10:22:27;;;;;;;6.50;1.80;;;;;;;22.67;39.30;100564.06;5118845;27;20062;-61
2022/09/19 10:24:59;;;;;;;4.78;1.45;;;;;;;22.24;41.89;100558.88;5127197;27;20063;-62
2022/09/19 10:27:38;;;;;;;8.07;2.00;;;;;;;21.79;44.78;100572.19;5138283;27;20066;-62
2022/09/19 10:30:16;;;;;;;8.52;1.95;;;;;;;21.60;44.48;100575.22;5126763;27;20395;-61
2022/09/19 10:32:44;;;;;;;4.15;1.40;;;;;;;21.40;45.18;100566.88;5128688;27;20051;-63
2022/09/19 10:35:26;;;;;;;6.80;1.95;;;;;;;23.24;44.73;100558.72;5131592;27;20484;-62
2022/09/19 10:38:00;;;;;;;5.07;1.63;;;;;;;25.25;37.98;100546.66;5125195;27;20059;-62
2022/09/19 10:40:30;;;;;;;5.63;2.08;;;;;;;26.94;34.43;100546.22;5131558;27;20069;-62
2022/09/19 10:42:58;;;;;;;6.72;1.80;;;;;;;28.28;32.17;100546.88;5132894;27;20607;-62
2022/09/19 10:45:28;;;;;;;3.92;1.65;;;;;;;29.08;31.41;100540.50;5129141;27;20453;-62
2022/09/19 10:48:01;;;;;;;5.90;1.65;;;;;;;29.32;29.88;100536.34;5127135;27;20066;-62
2022/09/19 10:50:30;;;;;;;3.97;1.30;;;;;;;30.40;28.50;100519.50;5143630;27;20062;-61
2022/09/19 10:53:02;;;;;;;5.38;1.70;;;;;;;31.21;28.90;100531.28;5146699;27;20059;-62
2022/09/19 10:55:36;;;;;;;3.80;1.52;;;;;;;31.99;25.51;100521.50;5144638;27;20051;-62
2022/09/19 10:58:06;;;;;;;3.17;1.48;;;;;;;31.75;26.49;100519.75;5143498;27;20055;-61
2022/09/19 11:00:50;;;;;;;3.13;1.10;;;;;;;30.37;27.98;100533.97;5142976;27;20418;-61
2022/09/19 11:03:23;;;;;;;3.17;1.40;;;;;;;29.44;28.69;100548.41;5145803;27;20062;-63
2022/09/19 11:06:05;;;;;;;3.97;1.27;;;;;;;28.09;29.29;100544.72;5142089;27;20075;-62
2022/09/19 11:08:43;;;;;;;5.18;1.40;;;;;;;27.23;31.07;100552.44;5143332;27;20057;-61
2022/09/19 11:11:37;;;;;;;5.80;1.67;;;;;;;25.90;34.48;100550.81;5142336;27;20055;-62
2022/09/19 11:14:26;;;;;;;3.58;1.33;;;;;;;24.64;36.04;100566.75;5144693;27;20510;-61
2022/09/19 11:17:09;;;;;;;4.05;1.60;;;;;;;24.09;37.40;100576.47;5140477;27;20061;-62
2022/09/19 11:20:06;;;;;;;4.43;1.63;;;;;;;23.78;38.89;100567.47;5144076;27;20478;-61
2022/09/19 11:22:44;;;;;;;3.72;1.30;;;;;;;24.17;39.17;100569.56;5144489;27;20507;-62
2022/09/19 11:25:22;;;;;;;3.78;1.35;;;;;;;24.52;39.49;100562.25;5145199;27;20403;-62
2022/09/19 11:28:05;;;;;;;5.00;1.58;;;;;;;26.44;35.68;100556.09;5146025;27;20054;-62
2022/09/19 11:30:37;;;;;;;4.25;1.70;;;;;;;28.17;33.70;100545.44;5142002;27;20046;-61
2022/09/19 11:33:21;;;;;;;4.15;1.70;;;;;;;29.59;30.70;100546.03;5144498;27;20394;-61
2022/09/19 11:35:54;;;;;;;4.65;1.73;;;;;;;30.78;28.81;100532.47;5141749;27;20074;-62
2022/09/19 11:38:34;;;;;;;4.45;1.77;;;;;;;31.70;27.60;100531.84;5145336;27;20051;-62
2022/09/19 11:41:16;;;;;;;4.90;1.83;;;;;;;31.96;26.50;100535.53;5146110;27;20063;-62
2022/09/19 11:44:00;;;;;;;5.70;1.80;;;;;;;31.90;25.83;100533.69;5146637;27;20055;-61
2022/09/19 11:46:37;;;;;;;6.20;2.20;;;;;;;32.47;26.60;100531.00;5137515;27;20410;-62
2022/09/19 11:49:34;;;;;;;5.28;2.05;;;;;;;33.48;25.34;100534.72;5145947;27;20489;-61
2022/09/19 11:52:11;;;;;;;4.43;1.45;;;;;;;32.71;25.04;100529.31;5105072;27;20128;-62
2022/09/19 11:55:03;;;;;;;4.45;1.75;;;;;;;31.12;26.30;100534.78;5143502;27;20132;-62
2022/09/19 11:57:39;;;;;;;5.13;1.48;;;;;;;30.19;27.24;100523.69;5140357;27;20054;-62